Aeroporto :
LOGIN :

Iscrizione | Disclaimer

   EN    FR    IT 

 










Sommario :    VFR   VFR Marginale   IFR   IFR Intensivo   IFR Molto Intensivo
Visibilità : 
Base nubi : 
>= 8 km
>= 3000ft
5 / 8 km
1000 / 3000 ft
1500m / 5 km
500 / 1000 ft
800 / 1500m
200 / 500 ft
< 800m
< 200 ft
Simboli :   Temporali  Nebbia  Neve Forte  Precipitazioni Forti  Vento > 20 kt
SIGMETs :   Varie  Temporali  Ghiacco  Turbolenza  Onda orograficha  Ceneri Vulcaniche






- Altitudine del aeroporto : 512 ft
- Codice IATA : URO


LFOP - Rouen Vallée de Seine

ULTIMO METAR :
  • 041600Z AUTO 06008KT 9000 OVC011 02/M00 Q1013 BECMG OVC007

METARs OBSOLETI :
  • 041530Z AUTO 06008KT 040V100 9000 BKN010 OVC014 02/M00 Q1013 NOSIG
  • 041500Z AUTO 07008KT 9000 OVC011 02/M00 Q1013 BECMG OVC007
  • 041430Z AUTO 06010KT 9000 OVC011 02/00 Q1013 BECMG OVC007
  • 041400Z AUTO 06009KT 8000 OVC010 02/00 Q1012 NOSIG
  • 041330Z AUTO 05009KT 9000 OVC010 02/M00 Q1012 NOSIG
  • 041300Z AUTO 06009KT 9000 OVC011 02/M00 Q1012 NOSIG

TAF TAF LFOP
Valido dal 04 a 12 ore il 05 a 12 ore UTC


041100Z 0412/0512 07007KT 8000 OVC012
BECMG 0416/0419 OVC007
BECMG 0510/0512 OVC011
ATIS : +33 2 35 80 80 34
Met : +33 2 32 86 52 80



MetMap, La meteo Aeronautica in un colpo d'occhio ! - Copyright ORBIFLY Dicembre 2007 - Disclaimer

ORBIFLY MET'MAP TEAM :

Programmazione e sviluppo : Alexandra Zaïnal
Concezione : Baudouin d'Aumeries
Supporto tecnico e logistico : Manuel Goepfert
Aiuto : Marc-Olivier Méhu
Aiuto per la traduzione : Arnaldo La Scala




FONTI E CREDITI :

   NOAA